createdAt,value
2023-01-09T00:07:00.954Z,0.60
2023-01-09T00:10:04.983Z,0.70
2023-01-09T00:13:17.357Z,0.45
2023-01-09T00:16:03.590Z,0.40
2023-01-09T00:19:31.995Z,0.47
2023-01-09T00:23:11.026Z,0.40
2023-01-09T00:26:17.045Z,1.00
2023-01-09T00:29:30.654Z,0.60
2023-01-09T00:35:54.002Z,0.60
2023-01-09T00:42:45.887Z,0.60
2023-01-09T00:45:57.043Z,0.50
2023-01-09T00:49:46.592Z,0.47
2023-01-09T00:52:06.854Z,0.52
2023-01-09T00:55:05.944Z,0.35
2023-01-09T01:03:03.865Z,0.65
2023-01-09T01:04:51.495Z,0.50
2023-01-09T01:08:29.189Z,0.50
2023-01-09T01:12:18.596Z,0.60
2023-01-09T01:15:03.148Z,0.43
2023-01-09T01:17:52.808Z,0.40
2023-01-09T01:21:01.527Z,0.53
2023-01-09T01:23:55.918Z,0.40
2023-01-09T01:27:08.628Z,0.70
2023-01-09T01:30:03.190Z,0.50
2023-01-09T01:32:41.570Z,0.47
2023-01-09T01:35:22.169Z,0.60
2023-01-09T01:41:32.502Z,0.68
2023-01-09T01:45:46.635Z,0.50
2023-01-09T01:50:56.752Z,0.60
2023-01-09T01:52:42.037Z,0.40
2023-01-09T01:56:03.847Z,0.70
2023-01-09T01:58:53.447Z,0.30
2023-01-09T02:01:44.626Z,0.30
2023-01-09T02:04:42.851Z,0.55
2023-01-09T02:07:40.511Z,0.80
2023-01-09T02:10:50.466Z,0.30
2023-01-09T02:14:11.554Z,0.40
2023-01-09T02:18:06.925Z,0.40
2023-01-09T02:21:43.609Z,0.40
2023-01-09T02:25:26.757Z,0.77
2023-01-09T02:27:59.448Z,0.45
2023-01-09T02:31:19.265Z,0.38
2023-01-09T02:34:49.385Z,1.25
2023-01-09T02:38:33.286Z,0.45
2023-01-09T02:42:52.944Z,0.40
2023-01-09T02:45:44.216Z,0.50
2023-01-09T02:48:37.396Z,0.50
2023-01-09T02:52:02.111Z,0.68
2023-01-09T02:55:19.924Z,0.47
2023-01-09T02:59:07.469Z,0.53
2023-01-09T03:02:05.751Z,0.55
2023-01-09T03:05:30.163Z,0.40
2023-01-09T03:08:38.131Z,0.43
2023-01-09T03:12:14.794Z,0.60
2023-01-09T03:15:37.387Z,0.37
2023-01-09T03:22:00.945Z,0.40
2023-01-09T03:25:00.128Z,0.55
2023-01-09T03:28:10.294Z,0.43
2023-01-09T03:31:04.552Z,0.40
2023-01-09T03:34:06.420Z,0.45
2023-01-09T03:36:57.066Z,0.40
2023-01-09T03:40:15.805Z,0.75
2023-01-09T03:43:24.528Z,0.57
2023-01-09T03:52:15.078Z,0.30
2023-01-09T03:58:54.537Z,0.65
2023-01-09T04:01:54.045Z,0.50
2023-01-09T04:04:47.423Z,0.50
2023-01-09T04:07:37.082Z,0.60
2023-01-09T04:14:04.355Z,0.40
2023-01-09T04:19:53.098Z,0.60
2023-01-09T04:26:13.581Z,0.40
2023-01-09T04:28:52.582Z,0.70
2023-01-09T04:31:56.531Z,0.60
2023-01-09T04:34:58.649Z,0.50
2023-01-09T04:37:45.738Z,0.60
2023-01-09T04:40:32.706Z,0.80
2023-01-09T04:43:50.944Z,0.60
2023-01-09T04:46:32.865Z,0.37
2023-01-09T04:49:17.173Z,0.50
2023-01-09T04:52:09.047Z,0.70
2023-01-09T04:55:22.344Z,1.02
2023-01-09T04:58:29.955Z,0.60
2023-01-09T05:01:32.730Z,0.33
2023-01-09T05:04:17.209Z,0.73
2023-01-09T05:07:54.216Z,0.63
2023-01-09T05:10:09.599Z,0.40
2023-01-09T05:12:56.151Z,0.50
2023-01-09T05:16:03.877Z,0.53
2023-01-09T05:18:59.609Z,0.40
2023-01-09T05:21:46.092Z,0.60
2023-01-09T05:24:44.267Z,0.50
2023-01-09T05:27:25.324Z,0.70
2023-01-09T05:30:50.003Z,0.97
2023-01-09T05:33:39.634Z,0.93
2023-01-09T05:36:20.746Z,0.40
2023-01-09T05:39:09.785Z,0.40
2023-01-09T05:41:56.495Z,0.70
2023-01-09T05:44:54.133Z,0.50
2023-01-09T05:48:05.968Z,0.40
2023-01-09T05:51:28.789Z,0.50
2023-01-09T05:57:44.152Z,0.40
2023-01-09T06:01:00.678Z,0.70
2023-01-09T06:03:47.947Z,0.65
2023-01-09T06:07:09.029Z,0.47
2023-01-09T06:10:09.170Z,0.45
2023-01-09T06:13:21.329Z,0.65
2023-01-09T06:16:14.969Z,0.30
2023-01-09T06:19:16.820Z,0.82
2023-01-09T06:22:31.485Z,0.20
2023-01-09T06:25:27.814Z,0.40
2023-01-09T06:28:00.172Z,0.52
2023-01-09T06:31:24.532Z,0.43
2023-01-09T06:37:55.383Z,0.50
2023-01-09T06:41:05.987Z,0.50
2023-01-09T06:43:35.793Z,0.60
2023-01-09T06:47:39.403Z,0.43
2023-01-09T06:57:12.868Z,0.60
2023-01-09T06:59:43.731Z,0.50
2023-01-09T07:06:27.289Z,0.35
2023-01-09T07:09:22.744Z,0.40
2023-01-09T07:12:40.882Z,0.50
2023-01-09T07:16:07.755Z,0.50
2023-01-09T07:19:11.155Z,0.60
2023-01-09T07:22:41.209Z,0.40
2023-01-09T07:25:13.287Z,0.40
2023-01-09T07:28:14.838Z,0.60
2023-01-09T07:32:42.020Z,0.57
2023-01-09T07:34:25.076Z,0.67
2023-01-09T07:40:50.236Z,0.40
2023-01-09T07:43:30.961Z,0.50
2023-01-09T07:46:15.159Z,0.40
2023-01-09T07:48:50.052Z,0.60
2023-01-09T07:51:40.801Z,0.60
2023-01-09T07:54:20.974Z,0.45
2023-01-09T07:57:29.646Z,0.65
2023-01-09T08:00:33.668Z,0.50
2023-01-09T08:06:34.487Z,0.50
2023-01-09T08:09:23.859Z,0.82
2023-01-09T08:12:21.226Z,0.47
2023-01-09T08:15:16.414Z,0.65
2023-01-09T08:18:12.017Z,0.50
2023-01-09T08:21:24.447Z,0.60
2023-01-09T08:24:14.680Z,0.30
2023-01-09T08:26:57.176Z,0.40
2023-01-09T08:30:00.647Z,0.40
2023-01-09T08:33:08.926Z,0.27
2023-01-09T08:36:07.611Z,0.40
2023-01-09T08:39:14.519Z,0.40
2023-01-09T08:42:14.964Z,0.30
2023-01-09T08:48:58.534Z,0.30
2023-01-09T08:51:32.177Z,0.57
2023-01-09T08:54:28.099Z,0.30
2023-01-09T08:57:20.073Z,0.30
2023-01-09T09:00:24.524Z,0.30
2023-01-09T09:03:26.659Z,0.30
2023-01-09T09:09:45.000Z,0.30
2023-01-09T09:13:12.176Z,0.30
2023-01-09T09:16:17.645Z,0.40
2023-01-09T09:19:07.985Z,0.60
2023-01-09T09:25:02.772Z,0.30
2023-01-09T09:27:46.956Z,0.30
2023-01-09T09:30:28.051Z,0.20
2023-01-09T09:33:18.091Z,0.60
2023-01-09T09:36:01.443Z,0.43
2023-01-09T09:38:46.230Z,0.28
2023-01-09T09:42:43.570Z,0.40
2023-01-09T09:45:47.087Z,0.50
2023-01-09T09:48:57.206Z,0.40
2023-01-09T09:52:01.216Z,0.30
2023-01-09T09:54:50.920Z,0.30
2023-01-09T09:57:27.617Z,0.40
2023-01-09T09:59:55.918Z,0.40
2023-01-09T10:02:47.946Z,0.30
2023-01-09T10:05:30.403Z,0.30
2023-01-09T10:08:15.974Z,0.30
2023-01-09T10:10:52.571Z,0.38
2023-01-09T10:13:45.087Z,0.40
2023-01-09T10:16:37.363Z,0.57
2023-01-09T10:24:00.399Z,0.35
2023-01-09T10:27:16.038Z,0.40
2023-01-09T10:30:27.874Z,0.40
2023-01-09T10:33:47.251Z,0.60
2023-01-09T10:37:07.530Z,0.60
2023-01-09T10:40:00.210Z,0.40
2023-01-09T10:42:55.434Z,0.40
2023-01-09T10:45:40.558Z,0.40
2023-01-09T10:48:53.080Z,0.50
2023-01-09T10:51:36.705Z,0.50
2023-01-09T10:54:16.112Z,0.65
2023-01-09T10:56:55.373Z,0.63
2023-01-09T10:59:30.242Z,0.60
2023-01-09T11:02:22.860Z,0.90
2023-01-09T11:05:02.522Z,0.40
2023-01-09T11:07:39.928Z,0.50
2023-01-09T11:10:18.629Z,0.40
2023-01-09T11:12:51.135Z,0.40
2023-01-09T11:15:25.409Z,0.70
2023-01-09T11:18:01.669Z,0.30
2023-01-09T11:20:34.054Z,0.50
2023-01-09T11:23:14.251Z,0.52
2023-01-09T11:26:09.199Z,0.57
2023-01-09T11:28:48.683Z,0.77
2023-01-09T11:31:26.105Z,0.40
2023-01-09T11:34:14.616Z,0.50
2023-01-09T11:37:03.938Z,0.70
2023-01-09T11:39:41.953Z,0.50
2023-01-09T11:42:45.192Z,0.60
2023-01-09T11:45:36.620Z,0.30
2023-01-09T11:48:39.416Z,0.40
2023-01-09T11:53:06.978Z,0.60
2023-01-09T11:55:17.217Z,0.50
2023-01-09T11:58:27.460Z,0.50
2023-01-09T12:02:11.202Z,0.30
2023-01-09T12:05:04.779Z,0.60
2023-01-09T12:08:06.153Z,0.60
2023-01-09T12:11:27.704Z,0.47
2023-01-09T12:14:37.222Z,0.50
2023-01-09T12:17:58.989Z,0.40
2023-01-09T12:20:32.501Z,0.50
2023-01-09T12:23:13.279Z,0.80
2023-01-09T12:26:26.561Z,0.70
2023-01-09T12:29:48.857Z,0.90
2023-01-09T12:32:49.310Z,0.57
2023-01-09T12:36:31.910Z,0.63
2023-01-09T12:40:04.339Z,0.68
2023-01-09T12:43:41.142Z,0.90
2023-01-09T12:46:41.847Z,0.50
2023-01-09T12:50:20.764Z,0.95
2023-01-09T12:53:30.884Z,0.80
2023-01-09T12:56:30.081Z,0.93
2023-01-09T12:59:40.734Z,0.82
2023-01-09T13:02:21.380Z,1.00
2023-01-09T13:05:21.974Z,0.98
2023-01-09T13:08:00.343Z,0.95
2023-01-09T13:10:53.014Z,1.05
2023-01-09T13:14:09.098Z,1.30
2023-01-09T13:16:57.985Z,0.97
2023-01-09T13:19:51.633Z,0.90
2023-01-09T13:22:54.812Z,0.93
2023-01-09T13:26:26.397Z,0.90
2023-01-09T13:29:20.503Z,1.00
2023-01-09T13:32:21.289Z,0.90
2023-01-09T13:34:53.743Z,1.23
2023-01-09T13:37:33.884Z,0.82
2023-01-09T13:40:29.442Z,1.08
2023-01-09T13:43:04.709Z,0.95
2023-01-09T13:45:38.547Z,0.87
2023-01-09T13:48:18.003Z,0.75
2023-01-09T13:50:48.503Z,0.80
2023-01-09T13:53:18.630Z,0.70
2023-01-09T13:55:58.633Z,0.70
2023-01-09T13:58:38.235Z,0.80
2023-01-09T14:01:27.996Z,0.82
2023-01-09T14:04:18.434Z,1.00
2023-01-09T14:07:58.703Z,0.90
2023-01-09T14:10:40.161Z,0.90
2023-01-09T14:15:09.016Z,0.77
2023-01-09T14:16:42.835Z,1.33
2023-01-09T14:19:53.145Z,0.90
2023-01-09T14:23:28.121Z,0.95
2023-01-09T14:26:26.500Z,0.77
2023-01-09T14:29:34.045Z,0.93
2023-01-09T14:32:34.170Z,0.75
2023-01-09T14:35:31.984Z,0.80
2023-01-09T14:39:03.414Z,0.60
2023-01-09T14:41:53.530Z,0.95
2023-01-09T14:44:30.978Z,0.73
2023-01-09T14:47:40.485Z,0.90
2023-01-09T14:50:37.785Z,0.93
2023-01-09T14:53:13.955Z,0.73
2023-01-09T14:55:57.973Z,0.93
2023-01-09T14:58:31.527Z,0.80
2023-01-09T15:01:25.733Z,1.00
2023-01-09T15:04:29.918Z,0.90
2023-01-09T15:06:59.840Z,0.80
2023-01-09T15:10:00.256Z,0.95
2023-01-09T15:12:39.111Z,0.97
2023-01-09T15:15:21.239Z,0.80
2023-01-09T15:18:16.410Z,0.60
2023-01-09T15:21:32.803Z,1.23
2023-01-09T15:24:58.615Z,1.00
2023-01-09T15:27:59.080Z,0.50
2023-01-09T15:30:38.068Z,0.60
2023-01-09T15:33:20.869Z,0.50
2023-01-09T15:36:11.419Z,0.60
2023-01-09T15:38:52.036Z,0.80
2023-01-09T15:41:52.616Z,0.80
2023-01-09T15:44:41.388Z,0.80
2023-01-09T15:47:24.392Z,1.00
2023-01-09T15:49:59.759Z,0.57
2023-01-09T15:52:36.781Z,0.88
2023-01-09T15:56:38.615Z,0.90
2023-01-09T15:59:04.377Z,0.80
2023-01-09T16:01:44.758Z,0.80
2023-01-09T16:04:25.887Z,0.95
2023-01-09T16:07:16.495Z,1.00
2023-01-09T16:10:22.619Z,0.73
2023-01-09T16:13:05.871Z,1.30
2023-01-09T16:15:46.365Z,1.90
2023-01-09T16:18:54.450Z,3.22
2023-01-09T16:21:54.774Z,3.67
2023-01-09T16:24:39.655Z,2.00
2023-01-09T16:27:39.988Z,1.60
2023-01-09T16:30:42.867Z,1.35
2023-01-09T16:33:40.016Z,1.30
2023-01-09T16:36:31.753Z,1.40
2023-01-09T16:39:34.841Z,1.97
2023-01-09T16:45:39.876Z,1.23
2023-01-09T16:48:44.118Z,1.27
2023-01-09T16:51:35.236Z,1.48
2023-01-09T16:54:53.639Z,1.97
2023-01-09T16:57:30.013Z,1.80
2023-01-09T17:00:27.851Z,1.30
2023-01-09T17:03:29.070Z,2.08
2023-01-09T17:06:04.527Z,1.70
2023-01-09T17:09:02.677Z,2.00
2023-01-09T17:11:43.905Z,1.77
2023-01-09T17:14:13.252Z,2.28
2023-01-09T17:16:46.176Z,1.55
2023-01-09T17:19:28.475Z,1.73
2023-01-09T17:21:59.646Z,1.43
2023-01-09T17:25:16.327Z,2.25
2023-01-09T17:28:29.561Z,2.33
2023-01-09T17:31:07.665Z,2.45
2023-01-09T17:33:42.105Z,1.73
2023-01-09T17:36:44.538Z,2.20
2023-01-09T17:39:35.496Z,1.92
2023-01-09T17:42:27.937Z,1.20
2023-01-09T17:45:01.190Z,3.50
2023-01-09T17:47:36.530Z,2.63
2023-01-09T17:50:28.847Z,1.80
2023-01-09T17:53:18.593Z,1.10
2023-01-09T17:55:53.700Z,1.48
2023-01-09T17:58:37.726Z,1.15
2023-01-09T18:01:17.552Z,1.20
2023-01-09T18:03:55.192Z,1.00
2023-01-09T18:06:38.623Z,0.85
2023-01-09T18:09:16.797Z,1.70
2023-01-09T18:12:02.205Z,1.08
2023-01-09T18:14:47.844Z,0.93
2023-01-09T18:17:33.626Z,0.97
2023-01-09T18:20:08.854Z,0.85
2023-01-09T18:23:02.878Z,0.80
2023-01-09T18:25:40.126Z,0.80
2023-01-09T18:28:18.723Z,1.13
2023-01-09T18:31:20.025Z,0.90
2023-01-09T18:34:03.788Z,1.45
2023-01-09T18:36:44.852Z,0.95
2023-01-09T18:39:17.067Z,1.27
2023-01-09T18:41:49.568Z,1.08
2023-01-09T18:44:46.932Z,1.30
2023-01-09T18:47:19.460Z,1.10
2023-01-09T18:49:58.185Z,1.50
2023-01-09T18:52:36.430Z,1.23
2023-01-09T18:55:27.156Z,1.52
2023-01-09T18:58:21.338Z,1.37
2023-01-09T19:01:01.564Z,1.10
2023-01-09T19:03:43.762Z,0.90
2023-01-09T19:06:14.524Z,1.02
2023-01-09T19:08:56.359Z,1.38
2023-01-09T19:12:11.357Z,0.80
2023-01-09T19:14:54.473Z,0.77
2023-01-09T19:17:29.011Z,0.60
2023-01-09T19:20:13.502Z,0.70
2023-01-09T19:23:03.521Z,0.80
2023-01-09T19:25:53.836Z,0.80
2023-01-09T19:29:16.969Z,1.20
2023-01-09T19:31:46.883Z,0.90
2023-01-09T19:34:31.879Z,1.05
2023-01-09T19:40:19.586Z,1.40
2023-01-09T19:43:21.654Z,1.38
2023-01-09T19:46:19.841Z,1.65
2023-01-09T19:49:07.713Z,1.30
2023-01-09T19:53:14.839Z,1.30
2023-01-09T19:59:35.214Z,1.00
2023-01-09T20:02:15.627Z,1.17
2023-01-09T20:04:57.441Z,1.40
2023-01-09T20:07:28.539Z,1.55
2023-01-09T20:10:06.572Z,1.00
2023-01-09T20:12:56.919Z,1.75
2023-01-09T20:15:27.605Z,1.90
2023-01-09T20:18:35.195Z,2.40
2023-01-09T20:21:18.379Z,2.92
2023-01-09T20:24:15.618Z,2.07
2023-01-09T20:27:05.251Z,3.10
2023-01-09T20:29:52.684Z,6.03
2023-01-09T20:32:44.803Z,4.05
2023-01-09T20:36:07.955Z,2.67
2023-01-09T20:39:22.933Z,4.50
2023-01-09T20:42:08.051Z,2.58
2023-01-09T20:48:15.135Z,2.13
2023-01-09T20:51:28.821Z,3.63
2023-01-09T20:54:34.194Z,2.55
2023-01-09T20:57:40.294Z,2.63
2023-01-09T21:00:36.856Z,2.60
2023-01-09T21:03:19.770Z,3.72
2023-01-09T21:06:33.636Z,2.80
2023-01-09T21:09:17.551Z,2.67
2023-01-09T21:12:30.395Z,1.70
2023-01-09T21:15:21.526Z,1.98
2023-01-09T21:18:00.584Z,2.50
2023-01-09T21:20:33.952Z,2.45
2023-01-09T21:26:38.708Z,1.92
2023-01-09T21:29:20.983Z,2.58
2023-01-09T21:32:02.758Z,2.33
2023-01-09T21:34:54.667Z,2.85
2023-01-09T21:37:37.310Z,3.25
2023-01-09T21:40:28.392Z,2.67
2023-01-09T21:43:18.133Z,2.33
2023-01-09T21:46:17.703Z,2.20
2023-01-09T21:49:10.119Z,1.70
2023-01-09T21:51:45.023Z,1.42
2023-01-09T21:54:26.449Z,1.80
2023-01-09T21:57:10.918Z,2.28
2023-01-09T21:59:53.567Z,2.15
2023-01-09T22:02:27.483Z,1.60
2023-01-09T22:05:07.628Z,1.83
2023-01-09T22:07:41.933Z,2.85
2023-01-09T22:10:14.096Z,2.28
2023-01-09T22:13:05.635Z,1.88
2023-01-09T22:15:49.933Z,1.38
2023-01-09T22:21:42.717Z,1.58
2023-01-09T22:24:35.210Z,1.27
2023-01-09T22:27:22.129Z,1.00
2023-01-09T22:30:54.715Z,1.42
2023-01-09T22:35:35.881Z,1.10
2023-01-09T22:38:32.867Z,1.65
2023-01-09T22:45:13.624Z,1.00
2023-01-09T22:48:39.406Z,0.80
2023-01-09T22:52:00.998Z,1.30
2023-01-09T22:55:18.835Z,1.40
2023-01-09T22:58:06.363Z,1.30
2023-01-09T23:00:36.132Z,1.40
2023-01-09T23:03:06.329Z,1.67
2023-01-09T23:05:33.694Z,1.65
2023-01-09T23:08:03.508Z,1.35
2023-01-09T23:10:37.653Z,1.25
2023-01-09T23:13:11.021Z,1.17
2023-01-09T23:16:07.614Z,1.33
2023-01-09T23:19:41.291Z,1.90
2023-01-09T23:23:08.567Z,1.58
2023-01-09T23:26:54.462Z,1.30
2023-01-09T23:29:48.131Z,1.30
2023-01-09T23:32:41.930Z,1.13
2023-01-09T23:35:22.576Z,1.33
2023-01-09T23:38:26.796Z,1.05
2023-01-09T23:41:29.687Z,1.05
2023-01-09T23:44:47.540Z,1.23
2023-01-09T23:51:11.326Z,1.45
2023-01-09T23:53:50.214Z,1.35
2023-01-09T23:56:46.146Z,1.20
2023-01-09T23:59:53.211Z,1.70
